createdAt,value
2019-03-03T00:02:10.030Z,25.93
2019-03-03T00:04:38.789Z,26.33
2019-03-03T00:07:06.944Z,27.17
2019-03-03T00:09:35.038Z,25.27
2019-03-03T00:12:03.843Z,25.93
2019-03-03T00:14:31.945Z,25.87
2019-03-03T00:17:00.168Z,23.70
2019-03-03T00:19:28.298Z,25.30
2019-03-03T00:21:56.728Z,25.17
2019-03-03T00:24:25.622Z,24.97
2019-03-03T00:26:53.721Z,24.97
2019-03-03T00:29:21.902Z,26.13
2019-03-03T00:31:50.015Z,23.57
2019-03-03T00:34:18.155Z,22.53
2019-03-03T00:37:04.780Z,20.80
2019-03-03T00:39:43.436Z,23.30
2019-03-03T00:42:28.779Z,18.27
2019-03-03T00:45:25.849Z,19.33
2019-03-03T00:48:09.974Z,19.03
2019-03-03T00:51:09.870Z,15.93
2019-03-03T00:54:00.494Z,25.33
2019-03-03T00:56:44.218Z,21.30
2019-03-03T00:59:50.164Z,19.60
2019-03-03T01:02:30.914Z,21.73
2019-03-03T01:05:17.734Z,18.17
2019-03-03T01:08:05.576Z,20.63
2019-03-03T01:10:49.464Z,19.80
2019-03-03T01:13:46.218Z,16.30
2019-03-03T01:16:46.087Z,21.23
2019-03-03T01:19:27.139Z,19.57
2019-03-03T01:22:15.239Z,19.97
2019-03-03T01:25:01.006Z,18.93
2019-03-03T01:27:29.119Z,18.83
2019-03-03T01:29:57.763Z,15.17
2019-03-03T01:32:26.225Z,19.53
2019-03-03T01:34:54.351Z,20.77
2019-03-03T01:37:22.540Z,13.37
2019-03-03T01:39:50.697Z,18.10
2019-03-03T01:42:19.273Z,18.40
2019-03-03T01:44:47.390Z,15.50
2019-03-03T01:47:15.645Z,20.10
2019-03-03T01:49:43.821Z,16.87
2019-03-03T01:52:11.950Z,16.80
2019-03-03T01:54:40.055Z,16.30
2019-03-03T01:57:08.418Z,19.13
2019-03-03T01:59:36.575Z,16.03
2019-03-03T02:02:05.375Z,18.17
2019-03-03T02:04:33.498Z,13.57
2019-03-03T02:07:01.605Z,13.77
2019-03-03T02:09:29.671Z,16.03
2019-03-03T02:11:58.055Z,13.70
2019-03-03T02:14:26.234Z,15.37
2019-03-03T02:16:54.274Z,21.43
2019-03-03T02:19:22.855Z,11.80
2019-03-03T02:21:50.982Z,12.23
2019-03-03T02:24:19.269Z,14.90
2019-03-03T02:26:47.322Z,16.17
2019-03-03T02:29:15.416Z,13.57
2019-03-03T02:31:43.681Z,8.90
2019-03-03T02:34:12.449Z,10.83
2019-03-03T02:36:40.615Z,16.43
2019-03-03T02:39:16.624Z,15.03
2019-03-03T02:41:44.757Z,10.27
2019-03-03T02:44:13.013Z,9.20
2019-03-03T02:46:41.403Z,13.33
2019-03-03T02:49:10.260Z,14.27
2019-03-03T02:51:38.510Z,13.20
2019-03-03T02:54:06.651Z,12.27
2019-03-03T02:56:34.728Z,9.10
2019-03-03T02:59:03.034Z,16.90
2019-03-03T03:01:36.391Z,11.70
2019-03-03T03:04:04.717Z,11.30
2019-03-03T03:06:38.507Z,11.13
2019-03-03T03:09:25.659Z,15.90
2019-03-03T03:12:13.478Z,13.70
2019-03-03T03:15:13.323Z,11.33
2019-03-03T03:18:00.082Z,12.73
2019-03-03T03:20:53.742Z,10.73
2019-03-03T03:23:41.856Z,13.37
2019-03-03T03:26:21.191Z,17.43
2019-03-03T03:29:11.553Z,15.40
2019-03-03T03:32:08.375Z,14.20
2019-03-03T03:34:40.708Z,11.93
2019-03-03T03:37:21.282Z,11.70
2019-03-03T03:40:14.585Z,13.27
2019-03-03T03:43:08.373Z,12.73
2019-03-03T03:45:56.058Z,12.70
2019-03-03T03:48:49.545Z,12.03
2019-03-03T03:51:35.343Z,11.67
2019-03-03T03:54:23.681Z,11.67
2019-03-03T03:57:00.539Z,10.60
2019-03-03T03:59:35.397Z,14.50
2019-03-03T04:02:26.109Z,10.43
2019-03-03T04:05:16.432Z,16.03
2019-03-03T04:07:51.753Z,14.23
2019-03-03T04:10:31.465Z,9.70
2019-03-03T04:13:08.744Z,18.60
2019-03-03T04:15:48.274Z,8.47
2019-03-03T04:18:24.887Z,8.00
2019-03-03T04:21:11.460Z,10.37
2019-03-03T04:23:57.691Z,12.30
2019-03-03T04:26:44.208Z,8.77
2019-03-03T04:29:19.130Z,10.30
2019-03-03T04:32:13.114Z,9.40
2019-03-03T04:35:00.826Z,15.30
2019-03-03T04:38:00.765Z,11.37
2019-03-03T04:40:47.196Z,8.43
2019-03-03T04:43:36.766Z,10.37
2019-03-03T04:46:22.709Z,11.03
2019-03-03T04:49:28.837Z,12.03
2019-03-03T04:52:15.438Z,13.73
2019-03-03T04:55:06.082Z,15.40
2019-03-03T04:57:56.798Z,12.53
2019-03-03T05:00:43.551Z,12.60
2019-03-03T05:03:19.041Z,9.00
2019-03-03T05:06:21.864Z,13.77
2019-03-03T05:08:56.983Z,12.50
2019-03-03T05:12:28.286Z,15.03
2019-03-03T05:15:09.034Z,12.07
2019-03-03T05:17:44.061Z,11.77
2019-03-03T05:20:12.434Z,12.23
2019-03-03T05:22:40.552Z,14.37
2019-03-03T05:25:08.653Z,13.00
2019-03-03T05:27:36.949Z,12.93
2019-03-03T05:30:05.269Z,15.83
2019-03-03T05:32:33.364Z,12.27
2019-03-03T05:35:01.986Z,11.93
2019-03-03T05:37:30.932Z,16.73
2019-03-03T05:39:59.737Z,9.43
2019-03-03T05:42:27.807Z,15.13
2019-03-03T05:44:56.086Z,11.37
2019-03-03T05:47:25.023Z,9.17
2019-03-03T05:49:53.103Z,11.17
2019-03-03T05:52:21.170Z,9.87
2019-03-03T05:54:49.261Z,14.40
2019-03-03T05:57:17.373Z,18.33
2019-03-03T05:59:45.507Z,14.77
2019-03-03T06:02:13.596Z,10.53
2019-03-03T06:04:41.894Z,10.97
2019-03-03T06:07:10.343Z,11.67
2019-03-03T06:09:38.389Z,12.77
2019-03-03T06:12:07.151Z,15.37
2019-03-03T06:14:35.242Z,13.90
2019-03-03T06:17:03.440Z,14.03
2019-03-03T06:19:31.861Z,14.57
2019-03-03T06:21:59.930Z,13.57
2019-03-03T06:24:28.067Z,9.80
2019-03-03T06:26:56.511Z,9.97
2019-03-03T06:29:24.661Z,10.10
2019-03-03T06:31:52.746Z,10.90
2019-03-03T06:34:20.857Z,13.53
2019-03-03T06:36:49.105Z,11.87
2019-03-03T06:39:17.179Z,10.67
2019-03-03T06:41:45.461Z,14.20
2019-03-03T06:44:14.123Z,12.03
2019-03-03T06:46:42.195Z,13.07
2019-03-03T06:49:10.340Z,13.00
2019-03-03T06:51:38.422Z,13.93
2019-03-03T06:54:06.490Z,12.97
2019-03-03T06:56:34.568Z,13.60
2019-03-03T06:59:02.734Z,8.90
2019-03-03T07:01:30.879Z,14.10
2019-03-03T07:03:59.044Z,9.83
2019-03-03T07:06:27.260Z,13.87
2019-03-03T07:08:55.287Z,12.57
2019-03-03T07:11:24.047Z,13.80
2019-03-03T07:13:52.185Z,10.40
2019-03-03T07:16:20.584Z,10.20
2019-03-03T07:18:48.678Z,6.70
2019-03-03T07:21:16.744Z,11.20
2019-03-03T07:23:45.253Z,11.30
2019-03-03T07:26:13.630Z,13.30
2019-03-03T07:28:41.978Z,12.30
2019-03-03T07:31:10.064Z,11.23
2019-03-03T07:33:41.087Z,11.43
2019-03-03T07:36:09.694Z,10.20
2019-03-03T07:38:38.421Z,7.27
2019-03-03T07:41:06.484Z,12.63
2019-03-03T07:43:35.394Z,8.33
2019-03-03T07:46:03.703Z,9.80
2019-03-03T07:48:31.764Z,11.90
2019-03-03T07:50:59.922Z,8.13
2019-03-03T07:53:28.673Z,13.53
2019-03-03T07:55:57.389Z,8.83
2019-03-03T07:58:25.509Z,10.10
2019-03-03T08:00:53.540Z,10.57
2019-03-03T08:03:22.821Z,12.97
2019-03-03T08:05:50.974Z,10.03
2019-03-03T08:08:19.034Z,8.43
2019-03-03T08:10:47.146Z,7.77
2019-03-03T08:13:15.512Z,9.00
2019-03-03T08:15:44.026Z,8.20
2019-03-03T08:18:12.607Z,10.90
2019-03-03T08:20:40.691Z,7.03
2019-03-03T08:23:08.756Z,9.70
2019-03-03T08:25:36.931Z,11.00
2019-03-03T08:28:05.072Z,8.73
2019-03-03T08:30:33.261Z,7.57
2019-03-03T08:33:01.739Z,8.30
2019-03-03T08:35:29.991Z,11.30
2019-03-03T08:37:58.090Z,9.90
2019-03-03T08:40:26.416Z,7.60
2019-03-03T08:43:16.911Z,7.53
2019-03-03T08:46:10.443Z,8.57
2019-03-03T08:49:13.321Z,9.13
2019-03-03T08:52:13.300Z,9.10
2019-03-03T08:55:13.476Z,6.90
2019-03-03T08:57:50.168Z,8.97
2019-03-03T09:00:36.769Z,10.40
2019-03-03T09:03:33.576Z,9.50
2019-03-03T09:06:19.626Z,6.90
2019-03-03T09:09:06.154Z,10.13
2019-03-03T09:11:53.919Z,9.63
2019-03-03T09:14:56.985Z,10.60
2019-03-03T09:17:35.121Z,9.87
2019-03-03T09:20:38.433Z,10.80
2019-03-03T09:23:26.152Z,12.90
2019-03-03T09:26:05.742Z,11.37
2019-03-03T09:29:08.529Z,9.50
2019-03-03T09:31:54.978Z,8.33
2019-03-03T09:34:42.630Z,9.43
2019-03-03T09:37:48.620Z,10.97
2019-03-03T09:40:35.285Z,10.37
2019-03-03T09:43:30.970Z,7.83
2019-03-03T09:46:25.201Z,9.83
2019-03-03T09:49:17.224Z,10.03
2019-03-03T09:52:18.967Z,10.97
2019-03-03T09:55:05.606Z,11.97
2019-03-03T09:57:53.568Z,10.33
2019-03-03T10:00:40.251Z,12.67
2019-03-03T10:03:35.502Z,8.83
2019-03-03T10:06:32.554Z,10.67
2019-03-03T10:09:18.929Z,7.83
2019-03-03T10:11:55.745Z,10.37
2019-03-03T10:14:46.200Z,7.83
2019-03-03T10:17:20.360Z,11.10
2019-03-03T10:19:58.394Z,8.40
2019-03-03T10:23:05.744Z,12.17
2019-03-03T10:25:58.715Z,12.10
2019-03-03T10:28:49.643Z,11.40
2019-03-03T10:31:40.276Z,7.93
2019-03-03T10:34:13.589Z,10.93
2019-03-03T10:36:54.398Z,8.73
2019-03-03T10:39:37.603Z,8.43
2019-03-03T10:42:11.935Z,8.87
2019-03-03T10:44:58.807Z,9.03
2019-03-03T10:47:49.514Z,9.43
2019-03-03T10:50:36.091Z,7.37
2019-03-03T10:53:13.064Z,8.23
2019-03-03T10:55:48.638Z,8.03
2019-03-03T10:58:45.184Z,6.77
2019-03-03T11:01:24.120Z,11.77
2019-03-03T11:04:10.789Z,7.90
2019-03-03T11:06:59.590Z,8.63
2019-03-03T11:09:46.517Z,9.50
2019-03-03T11:12:34.231Z,12.03
2019-03-03T11:15:22.016Z,10.13
2019-03-03T11:18:09.758Z,9.03
2019-03-03T11:20:59.210Z,8.97
2019-03-03T11:23:35.093Z,6.53
2019-03-03T11:26:35.101Z,6.90
2019-03-03T11:29:25.567Z,5.77
2019-03-03T11:32:12.395Z,7.97
2019-03-03T11:35:02.902Z,7.53
2019-03-03T11:38:08.773Z,7.57
2019-03-03T11:40:55.224Z,7.90
2019-03-03T11:43:40.449Z,6.47
2019-03-03T11:46:21.463Z,8.27
2019-03-03T11:49:21.369Z,7.00
2019-03-03T11:51:58.849Z,4.97
2019-03-03T11:54:34.308Z,5.00
2019-03-03T11:57:07.817Z,5.67
2019-03-03T12:00:09.869Z,6.93
2019-03-03T12:03:00.580Z,4.73
2019-03-03T12:05:39.604Z,5.27
2019-03-03T12:08:17.165Z,4.60
2019-03-03T12:11:05.128Z,5.70
2019-03-03T12:14:05.129Z,6.00
2019-03-03T12:17:05.303Z,5.40
2019-03-03T12:19:45.993Z,3.87
2019-03-03T12:22:21.609Z,6.03
2019-03-03T12:25:15.199Z,4.83
2019-03-03T12:28:03.419Z,4.60
2019-03-03T12:30:40.960Z,4.00
2019-03-03T12:33:34.426Z,5.83
2019-03-03T12:36:15.291Z,5.03
2019-03-03T12:39:01.828Z,4.07
2019-03-03T12:41:44.111Z,4.53
2019-03-03T12:44:37.870Z,4.33
2019-03-03T12:47:13.535Z,6.10
2019-03-03T12:49:58.766Z,5.93
2019-03-03T12:52:36.990Z,4.53
2019-03-03T12:55:33.927Z,4.93
2019-03-03T12:58:18.543Z,4.50
2019-03-03T13:01:06.590Z,5.07
2019-03-03T13:03:56.386Z,5.33
2019-03-03T13:06:46.274Z,3.73
2019-03-03T13:09:46.568Z,3.87
2019-03-03T13:12:23.320Z,4.73
2019-03-03T13:15:03.979Z,5.33
2019-03-03T13:17:51.129Z,4.10
2019-03-03T13:20:26.580Z,3.27
2019-03-03T13:23:15.687Z,3.00
2019-03-03T13:26:03.777Z,3.30
2019-03-03T13:28:49.796Z,3.43
2019-03-03T13:31:27.601Z,4.00
2019-03-03T13:34:14.768Z,3.90
2019-03-03T13:36:49.438Z,3.40
2019-03-03T13:39:43.003Z,3.40
2019-03-03T13:42:29.453Z,6.30
2019-03-03T13:44:59.345Z,3.50
2019-03-03T13:47:27.522Z,3.50
2019-03-03T13:49:55.638Z,4.87
2019-03-03T13:52:25.162Z,3.80
2019-03-03T13:54:53.249Z,6.30
2019-03-03T13:57:21.382Z,4.63
2019-03-03T13:59:49.533Z,5.57
2019-03-03T14:02:17.832Z,3.90
2019-03-03T14:04:46.254Z,4.90
2019-03-03T14:07:14.999Z,4.40
2019-03-03T14:09:43.333Z,6.37
2019-03-03T14:12:11.454Z,4.73
2019-03-03T14:14:39.600Z,4.87
2019-03-03T14:17:07.827Z,5.77
2019-03-03T14:19:36.420Z,7.00
2019-03-03T14:22:04.845Z,4.87
2019-03-03T14:24:32.914Z,6.27
2019-03-03T14:27:10.106Z,6.03
2019-03-03T14:29:31.483Z,5.53
2019-03-03T14:31:59.564Z,5.47
2019-03-03T14:34:32.909Z,5.77
2019-03-03T14:37:01.429Z,6.63
2019-03-03T14:39:29.526Z,4.27
2019-03-03T14:41:57.876Z,5.27
2019-03-03T14:44:25.936Z,5.13
2019-03-03T14:47:00.771Z,5.73
2019-03-03T14:49:36.503Z,4.87
2019-03-03T14:52:12.551Z,6.43
2019-03-03T14:54:41.267Z,7.57
2019-03-03T14:57:09.370Z,5.23
2019-03-03T14:59:37.434Z,6.53
2019-03-03T15:02:05.595Z,6.23
2019-03-03T15:04:33.670Z,5.37
2019-03-03T15:07:01.868Z,5.27
2019-03-03T15:09:30.665Z,5.70
2019-03-03T15:11:59.070Z,6.87
2019-03-03T15:14:27.217Z,4.77
2019-03-03T15:16:55.359Z,4.47
2019-03-03T15:19:23.441Z,5.47
2019-03-03T15:21:51.534Z,5.93
2019-03-03T15:24:19.747Z,6.30
2019-03-03T15:26:47.867Z,5.57
2019-03-03T15:29:15.947Z,5.60
2019-03-03T15:31:44.183Z,5.80
2019-03-03T15:34:12.249Z,6.13
2019-03-03T15:36:40.320Z,5.77
2019-03-03T15:39:09.519Z,5.60
2019-03-03T15:41:37.985Z,4.60
2019-03-03T15:44:06.099Z,5.17
2019-03-03T15:46:34.272Z,7.20
2019-03-03T15:49:02.374Z,6.70
2019-03-03T15:51:30.540Z,6.53
2019-03-03T15:53:58.591Z,5.07
2019-03-03T15:56:26.698Z,9.47
2019-03-03T15:58:55.873Z,5.97
2019-03-03T16:01:24.153Z,6.60
2019-03-03T16:03:52.302Z,5.77
2019-03-03T16:06:20.404Z,5.17
2019-03-03T16:08:48.496Z,5.57
2019-03-03T16:11:16.601Z,6.57
2019-03-03T16:13:44.668Z,5.70
2019-03-03T16:16:13.215Z,5.03
2019-03-03T16:18:41.421Z,7.73
2019-03-03T16:21:09.509Z,7.17
2019-03-03T16:23:37.582Z,5.50
2019-03-03T16:26:05.754Z,4.90
2019-03-03T16:28:33.923Z,7.40
2019-03-03T16:31:01.958Z,7.97
2019-03-03T16:33:30.037Z,5.67
2019-03-03T16:35:58.130Z,4.80
2019-03-03T16:38:26.229Z,4.60
2019-03-03T16:40:55.222Z,4.33
2019-03-03T16:43:23.438Z,5.77
2019-03-03T16:45:51.733Z,5.10
2019-03-03T16:48:20.026Z,5.67
2019-03-03T16:50:48.230Z,6.57
2019-03-03T16:53:16.357Z,5.23
2019-03-03T16:55:44.437Z,7.47
2019-03-03T16:58:12.715Z,4.63
2019-03-03T17:00:40.916Z,4.43
2019-03-03T17:03:09.010Z,5.10
2019-03-03T17:05:37.458Z,5.87
2019-03-03T17:08:05.534Z,9.17
2019-03-03T17:10:34.000Z,5.23
2019-03-03T17:13:02.589Z,4.70
2019-03-03T17:15:30.642Z,5.47
2019-03-03T17:18:00.146Z,8.53
2019-03-03T17:20:28.522Z,5.77
2019-03-03T17:22:56.620Z,6.93
2019-03-03T17:25:24.847Z,6.10
2019-03-03T17:27:53.385Z,7.30
2019-03-03T17:30:22.069Z,7.70
2019-03-03T17:32:50.167Z,7.00
2019-03-03T17:35:18.304Z,7.27
2019-03-03T17:37:46.432Z,8.30
2019-03-03T17:40:16.978Z,6.97
2019-03-03T17:42:45.561Z,9.13
2019-03-03T17:45:16.801Z,8.27
2019-03-03T17:47:45.002Z,7.20
2019-03-03T17:50:14.567Z,7.60
2019-03-03T17:52:44.859Z,8.57
2019-03-03T17:55:14.353Z,9.20
2019-03-03T17:57:42.494Z,8.50
2019-03-03T18:00:14.529Z,8.37
2019-03-03T18:02:42.763Z,12.27
2019-03-03T18:05:10.945Z,11.30
2019-03-03T18:07:39.131Z,8.77
2019-03-03T18:10:08.163Z,10.40
2019-03-03T18:12:36.275Z,10.53
2019-03-03T18:15:07.006Z,12.37
2019-03-03T18:17:35.121Z,12.93
2019-03-03T18:20:04.010Z,12.60
2019-03-03T18:22:32.157Z,13.70
2019-03-03T18:25:00.260Z,12.63
2019-03-03T18:27:29.144Z,13.77
2019-03-03T18:29:57.206Z,12.87
2019-03-03T18:32:25.374Z,14.13
2019-03-03T18:34:53.432Z,17.27
2019-03-03T18:37:21.638Z,14.27
2019-03-03T18:39:50.183Z,17.43
2019-03-03T18:42:18.370Z,11.97
2019-03-03T18:44:46.492Z,13.43
2019-03-03T18:47:16.282Z,19.00
2019-03-03T18:49:44.415Z,16.87
2019-03-03T18:52:12.580Z,13.83
2019-03-03T18:54:40.623Z,14.83
2019-03-03T18:57:08.848Z,15.37
2019-03-03T18:59:36.924Z,19.27
2019-03-03T19:02:05.133Z,14.20
2019-03-03T19:04:33.531Z,20.30
2019-03-03T19:07:01.604Z,16.47
2019-03-03T19:09:29.771Z,16.20
2019-03-03T19:11:58.129Z,14.63
2019-03-03T19:14:28.486Z,22.93
2019-03-03T19:16:56.258Z,16.90
2019-03-03T19:19:24.340Z,22.43
2019-03-03T19:21:52.571Z,19.10
2019-03-03T19:24:20.683Z,15.07
2019-03-03T19:26:48.716Z,21.57
2019-03-03T19:29:17.176Z,15.67
2019-03-03T19:31:45.280Z,16.73
2019-03-03T19:34:13.534Z,20.87
2019-03-03T19:36:41.721Z,18.30
2019-03-03T19:39:10.386Z,18.57
2019-03-03T19:41:38.590Z,21.10
2019-03-03T19:44:07.357Z,27.77
2019-03-03T19:46:35.474Z,19.30
2019-03-03T19:49:03.635Z,20.70
2019-03-03T19:51:31.735Z,20.90
2019-03-03T19:53:59.852Z,21.70
2019-03-03T19:56:27.927Z,21.23
2019-03-03T19:58:56.127Z,21.30
2019-03-03T20:01:24.237Z,22.47
2019-03-03T20:03:52.368Z,24.20
2019-03-03T20:06:20.556Z,20.33
2019-03-03T20:08:48.640Z,18.50
2019-03-03T20:11:17.014Z,22.90
2019-03-03T20:13:45.230Z,20.33
2019-03-03T20:16:13.398Z,19.97
2019-03-03T20:18:41.507Z,22.33
2019-03-03T20:21:09.578Z,21.33
2019-03-03T20:23:38.083Z,16.50
2019-03-03T20:26:06.265Z,15.23
2019-03-03T20:28:34.387Z,16.67
2019-03-03T20:31:03.361Z,13.00
2019-03-03T20:33:31.462Z,15.30
2019-03-03T20:36:00.106Z,18.03
2019-03-03T20:38:28.193Z,18.60
2019-03-03T20:40:56.273Z,15.93
2019-03-03T20:43:24.360Z,20.20
2019-03-03T20:45:52.736Z,13.73
2019-03-03T20:48:20.939Z,19.60
2019-03-03T20:50:49.398Z,18.67
2019-03-03T20:53:19.379Z,15.00
2019-03-03T20:55:47.550Z,14.23
2019-03-03T20:58:17.087Z,20.10
2019-03-03T21:00:46.142Z,15.57
2019-03-03T21:03:14.272Z,15.40
2019-03-03T21:05:42.342Z,17.70
2019-03-03T21:08:10.467Z,14.20
2019-03-03T21:10:38.572Z,15.33
2019-03-03T21:13:06.705Z,14.53
2019-03-03T21:15:34.822Z,18.87
2019-03-03T21:18:02.963Z,17.00
2019-03-03T21:20:31.050Z,19.10
2019-03-03T21:22:59.281Z,13.37
2019-03-03T21:25:27.500Z,14.30
2019-03-03T21:27:56.214Z,11.10
2019-03-03T21:30:24.277Z,13.30
2019-03-03T21:32:53.321Z,10.47
2019-03-03T21:35:21.824Z,15.73
2019-03-03T21:37:49.992Z,13.77
2019-03-03T21:40:18.278Z,16.03
2019-03-03T21:42:46.466Z,13.47
2019-03-03T21:45:16.861Z,12.93
2019-03-03T21:47:44.944Z,12.50
2019-03-03T21:50:15.753Z,14.80
2019-03-03T21:52:43.950Z,12.20
2019-03-03T21:55:12.656Z,13.47
2019-03-03T21:57:40.703Z,12.90
2019-03-03T22:00:38.596Z,11.20
2019-03-03T22:03:07.001Z,9.77
2019-03-03T22:05:35.105Z,13.27
2019-03-03T22:08:03.717Z,12.00
2019-03-03T22:10:32.482Z,10.97
2019-03-03T22:13:06.221Z,10.87
2019-03-03T22:15:34.420Z,14.90
2019-03-03T22:18:02.515Z,10.73
2019-03-03T22:20:30.626Z,15.40
2019-03-03T22:23:01.410Z,14.07
2019-03-03T22:25:29.799Z,14.93
2019-03-03T22:27:58.336Z,13.77
2019-03-03T22:30:26.439Z,13.67
2019-03-03T22:32:54.693Z,14.57
2019-03-03T22:35:22.928Z,9.83
2019-03-03T22:37:51.429Z,11.20
2019-03-03T22:40:20.173Z,12.63
2019-03-03T22:42:48.254Z,13.07
2019-03-03T22:45:16.579Z,13.97
2019-03-03T22:47:44.622Z,13.03
2019-03-03T22:50:13.420Z,17.67
2019-03-03T22:52:41.656Z,14.63
2019-03-03T22:55:10.241Z,13.03
2019-03-03T22:57:38.386Z,13.63
2019-03-03T23:00:43.801Z,16.67
2019-03-03T23:03:15.504Z,14.67
2019-03-03T23:06:18.594Z,15.30
2019-03-03T23:09:14.347Z,17.93
2019-03-03T23:12:10.470Z,17.30
2019-03-03T23:15:29.312Z,19.07
2019-03-03T23:18:46.168Z,15.30
2019-03-03T23:21:46.647Z,16.80
2019-03-03T23:25:02.999Z,15.40
2019-03-03T23:27:31.133Z,17.00
2019-03-03T23:29:59.219Z,11.87
2019-03-03T23:32:27.411Z,18.80
2019-03-03T23:34:55.508Z,18.10
2019-03-03T23:37:24.881Z,13.30
2019-03-03T23:39:53.411Z,17.37
2019-03-03T23:42:21.524Z,18.53
2019-03-03T23:44:49.595Z,13.77
2019-03-03T23:47:17.816Z,15.67
2019-03-03T23:49:45.908Z,11.33
2019-03-03T23:52:14.020Z,12.47
2019-03-03T23:54:42.160Z,11.47
2019-03-03T23:57:10.262Z,15.33
2019-03-03T23:59:38.736Z,14.27
